Provisional Data: Little Pine Creek near Waterville, PA


Please select a monitoring station.
Please select start date.
Please select start date.

Toggle Unit: C/F Toggle Unit: C/F
Sample Time Temperature (C) Temperature (F) Specific Conductivity (mS/cm) pH   Turbidity (NTU+) DO (mg/L)
8/9/2021 12:00:00 AM 22.38 72.284 0.153 7.21 0.79 7.42
8/9/2021 12:15:00 AM 22.34 72.212 0.153 7.2 1.03 7.41
8/9/2021 12:30:00 AM 22.3 72.14 0.153 7.22 0.77 7.44
8/9/2021 12:45:00 AM 22.26 72.068 0.153 7.2 0.83 7.44
8/9/2021 1:00:00 AM 22.22 71.996 0.153 7.21 0.84 7.44
8/9/2021 1:15:00 AM 22.19 71.942 0.153 7.21 0.82 7.44
8/9/2021 1:30:00 AM 22.17 71.906 0.153 7.21 0.73 7.41
8/9/2021 1:45:00 AM 22.15 71.87 0.153 7.19 1.04 7.43
8/9/2021 2:00:00 AM 22.12 71.816 0.153 7.2 0.87 7.45
8/9/2021 2:15:00 AM 22.1 71.78 0.153 7.19 0.77 7.47
8/9/2021 2:30:00 AM 22.08 71.744 0.152 7.2 0.82 7.46
8/9/2021 2:45:00 AM 22.06 71.708 0.152 7.18 0.81 7.43
8/9/2021 3:00:00 AM 22.05 71.69 0.152 7.18 0.93 7.48
8/9/2021 3:15:00 AM 22.03 71.654 0.152 7.17 1.05 7.48
8/9/2021 3:30:00 AM 22.02 71.636 0.152 7.18 0.8 7.47
8/9/2021 3:45:00 AM 22 71.6 0.152 7.18 1.05 7.46
8/9/2021 4:00:00 AM 21.99 71.582 0.152 7.18 0.86 7.48
8/9/2021 4:15:00 AM 21.98 71.564 0.152 7.18 0.83 7.46
8/9/2021 4:30:00 AM 21.97 71.546 0.152 7.16 0.81 7.47
8/9/2021 4:45:00 AM 21.96 71.528 0.152 7.16 0.84 7.43
8/9/2021 5:00:00 AM 21.94 71.492 0.152 7.16 0.76 7.47
8/9/2021 5:15:00 AM 21.93 71.474 0.152 7.16 0.84 7.48
8/9/2021 5:30:00 AM 21.91 71.438 0.151 7.16 0.8 7.51
8/9/2021 5:45:00 AM 21.9 71.42 0.151 7.15 0.89 7.5
8/9/2021 6:00:00 AM 21.88 71.384 0.151 7.15 0.91 7.51
8/9/2021 6:15:00 AM 21.86 71.348 0.151 7.15 0.89 7.5
8/9/2021 6:30:00 AM 21.85 71.33 0.151 7.14 0.91 7.49
8/9/2021 6:45:00 AM 21.84 71.312 0.151 7.14 0.85 7.53
8/9/2021 7:00:00 AM 21.83 71.294 0.151 7.15 0.83 7.54
8/9/2021 7:15:00 AM 21.83 71.294 0.151 7.18 1.01 7.58
8/9/2021 7:30:00 AM 21.84 71.312 0.151 7.18 0.85 7.75
8/9/2021 7:45:00 AM 21.86 71.348 0.15 7.19 0.82 7.84
8/9/2021 8:00:00 AM 21.89 71.402 0.15 7.22 0.87 7.93
8/9/2021 8:15:00 AM 21.94 71.492 0.15 7.24 0.83 8.09
8/9/2021 8:30:00 AM 21.98 71.564 0.149 7.27 0.86 8.23
8/9/2021 8:45:00 AM 22.03 71.654 0.149 7.29 0.81 8.14
8/9/2021 9:00:00 AM 22.07 71.726 0.149 7.32 0.78 8.35
8/9/2021 9:15:00 AM 22.13 71.834 0.149 7.36 0.8 8.45
8/9/2021 9:30:00 AM 22.2 71.96 0.148 7.39 0.9 8.54
8/9/2021 9:45:00 AM 22.27 72.086 0.148 7.44 0.86 8.66
8/9/2021 10:00:00 AM 22.35 72.23 0.148 7.47 0.75 8.74
8/9/2021 10:15:00 AM 22.42 72.356 0.148 7.5 0.76 8.79
8/9/2021 10:30:00 AM 22.5 72.5 0.147 7.55 0.73 8.88
8/9/2021 10:45:00 AM 22.57 72.626 0.147 7.58 0.79 8.91
8/9/2021 11:00:00 AM 22.68 72.824 0.147 7.65 0.76 9.01
8/9/2021 11:15:00 AM 22.83 73.094 0.147 7.7 0.71 9.04
8/9/2021 11:30:00 AM 23.01 73.418 0.147 7.76 0.64 8.99
8/9/2021 11:45:00 AM 23.2 73.76 0.147 7.82 0.75 9.08
8/9/2021 12:00:00 PM 23.41 74.138 0.147 7.9 0.79 9.2
8/9/2021 12:30:00 PM 23.88 74.984 0.146 8.03 0.82 9.34
8/9/2021 12:45:00 PM 24.18 75.524 0.146 8.13 0.8 9.21
8/9/2021 1:00:00 PM 24.5 76.1 0.146 8.22 0.74 9.38
8/9/2021 1:15:00 PM 24.81 76.658 0.146 8.27 0.61 9.37
8/9/2021 1:30:00 PM 25.11 77.198 0.146 8.32 0.65 9.33
8/9/2021 1:45:00 PM 25.43 77.774 0.146 8.37 0.69 9.33
8/9/2021 2:00:00 PM 25.7 78.26 0.146 8.41 0.58 9.32
8/9/2021 2:15:00 PM 25.92 78.656 0.145 8.44 0.64 9.3
8/9/2021 2:30:00 PM 26.07 78.926 0.145 8.43 0.66 9.22
8/9/2021 2:45:00 PM 26.32 79.376 0.145 8.47 0.6 9.19
8/9/2021 3:00:00 PM 26.65 79.97 0.146 8.52 0.73 9.22
8/9/2021 3:15:00 PM 26.85 80.33 0.146 8.54 0.67 9.16
8/9/2021 3:30:00 PM 26.98 80.564 0.146 8.51 0.69 9.08
8/9/2021 3:45:00 PM 27.09 80.762 0.146 8.53 0.69 9.03
8/9/2021 4:00:00 PM 27.2 80.96 0.146 8.52 0.6 9
8/9/2021 4:15:00 PM 27.29 81.122 0.147 8.52 0.58 8.96
8/9/2021 4:30:00 PM 27.3 81.14 0.147 8.52 0.62 8.85
8/9/2021 4:45:00 PM 27.24 81.032 0.147 8.49 1.02 8.82
8/9/2021 5:00:00 PM 27.17 80.906 0.148 8.47 0.62 8.79
8/9/2021 5:15:00 PM 27.1 80.78 0.148 8.44 0.59 8.72
8/9/2021 5:30:00 PM 26.94 80.492 0.148 8.38 0.63 8.62
8/9/2021 5:45:00 PM 26.7 80.06 0.149 8.29 0.79 8.46
8/9/2021 6:00:00 PM 26.49 79.682 0.149 8.2 0.58 8.33
8/9/2021 6:15:00 PM 26.3 79.34 0.15 8.11 0.58 8.21
8/9/2021 6:30:00 PM 26.15 79.07 0.15 8 0.62 8.11
8/9/2021 6:45:00 PM 26.02 78.836 0.151 7.9 0.64 8
8/9/2021 7:00:00 PM 25.91 78.638 0.151 7.8 0.75 7.89
8/9/2021 7:15:00 PM 25.81 78.458 0.152 7.7 0.8 7.76
8/9/2021 7:30:00 PM 25.68 78.224 0.153 7.62 0.67 7.63
8/9/2021 7:45:00 PM 25.55 77.99 0.153 7.55 0.68 7.44
8/9/2021 8:00:00 PM 25.43 77.774 0.154 7.47 0.61 7.35
8/9/2021 8:15:00 PM 25.29 77.522 0.154 7.44 0.71 7.27
8/9/2021 8:30:00 PM 25.16 77.288 0.155 7.38 2.97 7.18
8/9/2021 8:45:00 PM 25.02 77.036 0.155 7.34 0.76 7.11
8/9/2021 9:00:00 PM 24.89 76.802 0.156 7.31 0.77 7.09
8/9/2021 9:15:00 PM 24.75 76.55 0.156 7.28 0.88 7.03
8/9/2021 9:30:00 PM 24.62 76.316 0.157 7.28 0.74 7.03
8/9/2021 9:45:00 PM 24.48 76.064 0.157 7.25 0.84 7.04
8/9/2021 10:00:00 PM 24.34 75.812 0.157 7.24 0.81 7.05
8/9/2021 10:15:00 PM 24.2 75.56 0.157 7.24 0.77 7.06
8/9/2021 10:30:00 PM 24.06 75.308 0.158 7.21 0.85 7.09
8/9/2021 10:45:00 PM 23.93 75.074 0.158 7.22 0.83 7.11
8/9/2021 11:00:00 PM 23.8 74.84 0.158 7.2 0.75 7.14
8/9/2021 11:15:00 PM 23.68 74.624 0.158 7.2 0.83 7.15
8/9/2021 11:30:00 PM 23.55 74.39 0.158 7.19 0.92 7.16
8/9/2021 11:45:00 PM 23.44 74.192 0.158 7.19 0.86 7.18
8/10/2021 12:00:00 AM 23.32 73.976 0.159 7.19 0.84 7.22
8/10/2021 12:15:00 AM 23.22 73.796 0.159 7.19 0.82 7.21
8/10/2021 12:30:00 AM 23.12 73.616 0.159 7.19 0.71 7.26
8/10/2021 12:45:00 AM 23.02 73.436 0.159 7.19 0.76 7.26
8/10/2021 1:00:00 AM 22.94 73.292 0.159 7.19 1.12 7.28
8/10/2021 1:15:00 AM 22.85 73.13 0.159 7.2 0.9 7.29
8/10/2021 1:30:00 AM 22.78 73.004 0.159 7.19 0.78 7.3
8/10/2021 1:45:00 AM 22.7 72.86 0.159 7.2 0.78 7.31
8/10/2021 2:00:00 AM 22.64 72.752 0.159 7.18 1.69 7.33
8/10/2021 2:15:00 AM 22.58 72.644 0.159 7.18 0.76 7.35
8/10/2021 2:30:00 AM 22.52 72.536 0.159 7.2 0.85 7.24
8/10/2021 2:45:00 AM 22.48 72.464 0.158 7.18 0.77 7.34
8/10/2021 3:00:00 AM 22.43 72.374 0.158 7.18 0.79 7.36
8/10/2021 3:15:00 AM 22.4 72.32 0.158 7.18 0.76 7.37
8/10/2021 3:30:00 AM 22.37 72.266 0.158 7.18 0.82 7.36
8/10/2021 3:45:00 AM 22.36 72.248 0.157 7.19 1.1 7.35
8/10/2021 4:00:00 AM 22.34 72.212 0.157 7.18 0.77 7.37
8/10/2021 4:15:00 AM 22.34 72.212 0.157 7.19 1.21 7.38
8/10/2021 4:30:00 AM 22.33 72.194 0.157 7.19 0.83 7.34
8/10/2021 4:45:00 AM 22.33 72.194 0.157 7.18 0.75 7.36
8/10/2021 5:00:00 AM 22.32 72.176 0.156 7.18 0.73 7.33
8/10/2021 5:15:00 AM 22.33 72.194 0.156 7.17 0.85 7.35
8/10/2021 5:30:00 AM 22.34 72.212 0.156 7.17 0.94 7.33
8/10/2021 5:45:00 AM 22.34 72.212 0.156 7.16 0.86 7.35
8/10/2021 6:00:00 AM 22.35 72.23 0.156 7.17 2.24 7.36
8/10/2021 6:15:00 AM 22.36 72.248 0.156 7.16 0.89 7.32
8/10/2021 6:30:00 AM 22.37 72.266 0.155 7.17 1.01 7.34
8/10/2021 6:45:00 AM 22.38 72.284 0.155 7.16 0.91 7.38
8/10/2021 7:00:00 AM 22.4 72.32 0.155 7.18 0.74 7.42
8/10/2021 7:15:00 AM 22.43 72.374 0.155 7.17 0.93 7.36
8/10/2021 7:30:00 AM 22.45 72.41 0.155 7.19 0.86 7.53
8/10/2021 7:45:00 AM 22.5 72.5 0.154 7.22 0.84 7.66
8/10/2021 8:00:00 AM 22.56 72.608 0.154 7.23 0.83 7.84
8/10/2021 8:15:00 AM 22.65 72.77 0.154 7.27 0.95 7.89
8/10/2021 8:30:00 AM 22.72 72.896 0.153 7.31 0.76 8.09
8/10/2021 8:45:00 AM 22.81 73.058 0.153 7.33 0.75 8.25
8/10/2021 9:00:00 AM 22.9 73.22 0.152 7.37 0.74 8.38
8/10/2021 9:15:00 AM 22.99 73.382 0.152 7.4 0.75 8.49
8/10/2021 9:30:00 AM 23.06 73.508 0.152 7.45 0.69 8.6
8/10/2021 9:45:00 AM 23.17 73.706 0.152 7.51 0.71 8.69
8/10/2021 10:00:00 AM 23.28 73.904 0.151 7.56 0.63 8.81
8/10/2021 10:15:00 AM 23.35 74.03 0.151 7.59 0.69 8.8
8/10/2021 10:30:00 AM 23.39 74.102 0.151 7.6 0.68 8.77
8/10/2021 10:45:00 AM 23.46 74.228 0.151 7.61 0.54 8.78
8/10/2021 11:00:00 AM 23.56 74.408 0.151 7.69 1.11 8.89
8/10/2021 11:15:00 AM 23.67 74.606 0.15 7.75 0.66 8.97
8/10/2021 11:30:00 AM 23.76 74.768 0.15 7.82 0.61 9.07
8/10/2021 11:45:00 AM 23.89 75.002 0.15 7.89 0.67 9.1
8/10/2021 12:00:00 PM 24.05 75.29 0.15 7.98 0.84 9.13
8/10/2021 12:15:00 PM 24.25 75.65 0.15 8.06 0.62 9.24
8/10/2021 12:30:00 PM 24.47 76.046 0.15 8.14 0.73 9.28
8/10/2021 12:45:00 PM 24.73 76.514 0.149 8.2 0.7 9.22
8/10/2021 1:00:00 PM 24.98 76.964 0.149 8.26 0.63 9.26
8/10/2021 1:15:00 PM 25.21 77.378 0.149 8.33 0.57 9.27
8/10/2021 1:30:00 PM 25.47 77.846 0.149 8.38 0.54 9.25
8/10/2021 1:45:00 PM 25.65 78.17 0.148 8.41 0.64 9.17
8/10/2021 2:00:00 PM 25.68 78.224 0.148 8.39 0.55 9.05
8/10/2021 2:15:00 PM 25.87 78.566 0.148 8.45 0.62 9.13
8/10/2021 2:30:00 PM 25.95 78.71 0.148 8.46 0.52 9.02
8/10/2021 2:45:00 PM 25.81 78.458 0.148 8.38 0.57 8.86
8/10/2021 3:00:00 PM 25.76 78.368 0.148 8.35 0.49 8.78
8/10/2021 3:15:00 PM 25.92 78.656 0.148 8.4 0.69 8.9
8/10/2021 3:30:00 PM 26.15 79.07 0.148 8.46 0.58 8.97
8/10/2021 3:45:00 PM 26.36 79.448 0.148 8.52 0.64 9.02
8/10/2021 4:00:00 PM 26.6 79.88 0.148 8.56 0.61 9.04
8/10/2021 4:15:00 PM 26.83 80.294 0.148 8.58 0.57 9.05
8/10/2021 4:30:00 PM 26.98 80.564 0.149 8.57 0.55 9
8/10/2021 4:45:00 PM 27.05 80.69 0.149 8.58 0.53 8.94
8/10/2021 5:00:00 PM 27.02 80.636 0.149 8.54 0.56 8.86
8/10/2021 5:15:00 PM 26.94 80.492 0.149 8.5 0.55 8.76
8/10/2021 5:30:00 PM 26.74 80.132 0.15 8.44 0.55 8.61
8/10/2021 5:45:00 PM 26.37 79.466 0.15 8.28 0.51 8.31
8/10/2021 6:00:00 PM 26.13 79.034 0.151 8.12 0.68 8.14
8/10/2021 6:15:00 PM 26.06 78.908 0.151 8.08 0.55 8.13
8/10/2021 6:30:00 PM 25.97 78.746 0.151 8.01 0.63 8.14
8/10/2021 6:45:00 PM 25.86 78.548 0.152 7.91 0.5 8.02
8/10/2021 7:00:00 PM 25.77 78.386 0.152 7.8 0.67 7.82
8/10/2021 7:15:00 PM 25.68 78.224 0.153 7.69 0.64 7.67
8/10/2021 7:30:00 PM 25.56 78.008 0.153 7.61 0.66 7.54
8/10/2021 7:45:00 PM 25.44 77.792 0.154 7.54 0.66 7.43
8/10/2021 8:00:00 PM 25.3 77.54 0.154 7.47 0.68 7.31
8/10/2021 8:15:00 PM 25.17 77.306 0.155 7.42 0.69 7.22
8/10/2021 8:30:00 PM 25.03 77.054 0.155 7.39 0.61 7.15
8/10/2021 8:45:00 PM 24.91 76.838 0.156 7.34 0.73 7.06
8/10/2021 9:00:00 PM 24.78 76.604 0.156 7.31 0.82 6.99
8/10/2021 9:15:00 PM 24.64 76.352 0.156 7.29 0.79 7
8/10/2021 9:30:00 PM 24.51 76.118 0.157 7.27 0.77 7
8/10/2021 9:45:00 PM 24.39 75.902 0.157 7.25 0.75 6.99
8/10/2021 10:00:00 PM 24.29 75.722 0.157 7.24 0.75 6.97
8/10/2021 10:15:00 PM 24.18 75.524 0.157 7.24 0.73 7.03
8/10/2021 10:30:00 PM 24.08 75.344 0.157 7.23 0.65 7.01
8/10/2021 10:45:00 PM 23.98 75.164 0.158 7.23 0.72 7.05
8/10/2021 11:00:00 PM 23.9 75.02 0.158 7.21 0.79 7.05
8/10/2021 11:15:00 PM 23.82 74.876 0.158 7.21 0.7 7.02
8/10/2021 11:30:00 PM 23.74 74.732 0.158 7.21 0.72 7.07
8/10/2021 11:45:00 PM 23.68 74.624 0.158 7.21 0.77 7.06
8/11/2021 12:00:00 AM 23.6 74.48 0.158 7.21 0.63 7.1
8/11/2021 12:15:00 AM 23.54 74.372 0.158 7.2 0.77 7.11
8/11/2021 12:30:00 AM 23.48 74.264 0.158 7.2 0.73 7.12
8/11/2021 12:45:00 AM 23.42 74.156 0.159 7.21 0.7 7.12
8/11/2021 1:00:00 AM 23.37 74.066 0.159 7.2 0.75 7.13
8/11/2021 1:15:00 AM 23.32 73.976 0.159 7.2 0.75 7.15
8/11/2021 1:30:00 AM 23.27 73.886 0.158 7.19 0.89 7.16
8/11/2021 1:45:00 AM 23.23 73.814 0.158 7.2 0.84 7.11
8/11/2021 2:00:00 AM 23.2 73.76 0.158 7.19 0.73 7.12
8/11/2021 2:15:00 AM 23.18 73.724 0.159 7.19 0.87 7.09
8/11/2021 2:30:00 AM 23.16 73.688 0.159 7.19 0.75 7.12
8/11/2021 2:45:00 AM 23.14 73.652 0.159 7.18 0.65 7.13
8/11/2021 3:00:00 AM 23.12 73.616 0.158 7.2 0.67 7.15
8/11/2021 3:15:00 AM 23.11 73.598 0.158 7.18 0.7 7.16
8/11/2021 3:30:00 AM 23.1 73.58 0.158 7.2 0.79 7.16
8/11/2021 3:45:00 AM 23.1 73.58 0.158 7.19 0.73 7.13
8/11/2021 4:00:00 AM 23.09 73.562 0.158 7.19 0.79 7.15
8/11/2021 4:15:00 AM 23.09 73.562 0.158 7.18 0.65 7.15
8/11/2021 4:30:00 AM 23.08 73.544 0.158 7.18 0.72 7.11
8/11/2021 4:45:00 AM 23.08 73.544 0.158 7.18 0.7 7.15
8/11/2021 5:00:00 AM 23.08 73.544 0.158 7.18 0.71 7.15
8/11/2021 5:15:00 AM 23.09 73.562 0.158 7.17 0.68 7.12
8/11/2021 5:30:00 AM 23.09 73.562 0.158 7.17 0.77 7.12
8/11/2021 5:45:00 AM 23.09 73.562 0.158 7.16 0.71 7.06
8/11/2021 6:00:00 AM 23.09 73.562 0.157 7.16 0.75 7.1
8/11/2021 6:15:00 AM 23.1 73.58 0.157 7.16 0.95 7.09
8/11/2021 6:30:00 AM 23.09 73.562 0.157 7.16 0.75 7.09
8/11/2021 6:45:00 AM 23.1 73.58 0.157 7.16 0.77 7.05
8/11/2021 7:00:00 AM 23.11 73.598 0.157 7.16 5.62 7.1
8/11/2021 7:15:00 AM 23.12 73.616 0.157 7.17 0.79 7.22
8/11/2021 7:30:00 AM 23.13 73.634 0.157 7.18 0.8 7.22
8/11/2021 7:45:00 AM 23.16 73.688 0.157 7.19 0.71 7.38
8/11/2021 8:00:00 AM 23.19 73.742 0.156 7.22 0.82 7.48
8/11/2021 8:15:00 AM 23.22 73.796 0.156 7.24 0.74 7.58
8/11/2021 8:30:00 AM 23.26 73.868 0.156 7.26 0.77 7.76
8/11/2021 8:45:00 AM 23.3 73.94 0.155 7.28 0.73 7.84
8/11/2021 9:00:00 AM 23.36 74.048 0.155 7.3 0.7 8
8/11/2021 9:15:00 AM 23.42 74.156 0.155 7.35 0.83 8.15
8/11/2021 9:30:00 AM 23.48 74.264 0.155 7.38 0.82 8.21
8/11/2021 9:45:00 AM 23.55 74.39 0.154 7.42 0.71 8.37
8/11/2021 10:00:00 AM 23.6 74.48 0.154 7.45 9.01 8.44
8/11/2021 10:15:00 AM 23.62 74.516 0.154 7.44 0.63 8.41
8/11/2021 10:30:00 AM 23.69 74.642 0.154 7.48 0.64 8.4
8/11/2021 10:45:00 AM 23.78 74.804 0.153 7.52 0.63 8.55
8/11/2021 11:00:00 AM 23.86 74.948 0.153 7.56 0.71 8.64
8/11/2021 11:15:00 AM 23.96 75.128 0.153 7.62 0.67 8.75
8/11/2021 11:30:00 AM 24.08 75.344 0.153 7.7 0.66 8.81
8/11/2021 11:45:00 AM 24.19 75.542 0.153 7.77 0.65 8.82
8/11/2021 12:00:00 PM 24.3 75.74 0.152 7.84 0.58 8.93
8/11/2021 12:15:00 PM 24.43 75.974 0.152 7.91 1.31 9.04
8/11/2021 12:30:00 PM 24.58 76.244 0.152 8 0.57 9.12
8/11/2021 12:45:00 PM 24.71 76.478 0.152 8.05 0.56 9.14
8/11/2021 1:00:00 PM 24.84 76.712 0.152 8.1 0.53 9.12
8/11/2021 1:15:00 PM 25.01 77.018 0.151 8.14 0.67 9.07
8/11/2021 1:30:00 PM 25.31 77.558 0.151 8.22 108.82 9.19
8/11/2021 1:45:00 PM 25.55 77.99 0.151 8.28 0.67 9.19
8/11/2021 2:00:00 PM 25.84 78.512 0.151 8.34 0.72 9.16
8/11/2021 2:15:00 PM 26.07 78.926 0.151 8.35 0.8 9.12
8/11/2021 2:30:00 PM 26.31 79.358 0.151 8.38 0.48 9.07
8/11/2021 2:45:00 PM 26.52 79.736 0.151 8.41 0.55 9
8/11/2021 3:00:00 PM 26.73 80.114 0.151 8.43 0.52 8.95
8/11/2021 3:15:00 PM 26.93 80.474 0.152 8.45 0.57 8.79
8/11/2021 3:30:00 PM 26.96 80.528 0.152 8.44 0.53 8.88
8/11/2021 3:45:00 PM 27.06 80.708 0.152 8.44 0.59 8.84
8/11/2021 4:00:00 PM 27.26 81.068 0.152 8.47 0.55 8.8
8/11/2021 4:15:00 PM 27.42 81.356 0.152 8.46 0.53 8.74
8/11/2021 4:30:00 PM 27.44 81.392 0.152 8.45 0.5 8.65
8/11/2021 4:45:00 PM 27.19 80.942 0.152 8.38 0.49 8.47
8/11/2021 5:00:00 PM 26.85 80.33 0.152 8.23 0.56 8.24
8/11/2021 5:15:00 PM 26.58 79.844 0.153 8.12 0.57 8.15
8/11/2021 5:30:00 PM 26.38 79.484 0.153 8.06 0.7 8.11
8/11/2021 5:45:00 PM 26.27 79.286 0.153 8.06 0.51 8.2
8/11/2021 6:00:00 PM 26.23 79.214 0.153 8.09 0.48 8.26
8/11/2021 6:15:00 PM 26.19 79.142 0.153 8.11 0.53 8.3
8/11/2021 6:30:00 PM 26.15 79.07 0.153 8.07 0.58 8.24
8/11/2021 6:45:00 PM 26.11 78.998 0.153 8.02 0.61 8.16
8/11/2021 7:00:00 PM 26.01 78.818 0.154 7.94 0.62 7.99
8/11/2021 7:15:00 PM 25.9 78.62 0.154 7.81 0.59 7.73
8/11/2021 7:30:00 PM 25.77 78.386 0.155 7.67 0.82 7.5
8/11/2021 7:45:00 PM 25.66 78.188 0.155 7.56 0.62 7.28
8/11/2021 8:00:00 PM 25.56 78.008 0.156 7.48 0.61 7.11
8/11/2021 8:15:00 PM 25.44 77.792 0.156 7.42 0.68 7.02
8/11/2021 8:30:00 PM 25.33 77.594 0.157 7.38 0.65 6.93
8/11/2021 8:45:00 PM 25.22 77.396 0.157 7.35 0.8 6.87
8/11/2021 9:00:00 PM 25.13 77.234 0.157 7.33 0.78 6.87
8/11/2021 9:15:00 PM 25.04 77.07201 0.158 7.31 0.74 6.84
8/11/2021 9:30:00 PM 24.96 76.92799 0.158 7.28 0.71 6.78
8/11/2021 9:45:00 PM 24.89 76.802 0.158 7.27 0.68 6.82
8/11/2021 10:00:00 PM 24.78 76.604 0.158 7.25 0.89 6.83
8/11/2021 10:15:00 PM 24.69 76.442 0.158 7.25 0.73 6.81
8/11/2021 10:30:00 PM 24.62 76.316 0.158 7.22 0.62 6.82
8/11/2021 10:45:00 PM 24.55 76.19 0.158 7.23 0.63 6.77
8/11/2021 11:00:00 PM 24.46 76.028 0.158 7.23 0.68 6.84
8/11/2021 11:15:00 PM 24.39 75.902 0.158 7.22 0.72 6.86
8/11/2021 11:30:00 PM 24.31 75.758 0.158 7.21 0.76 6.86
8/11/2021 11:45:00 PM 24.23 75.614 0.158 7.2 0.75 6.88
8/12/2021 12:00:00 AM 24.14 75.452 0.158 7.2 0.75 6.89
8/12/2021 12:15:00 AM 24.07 75.326 0.158 7.2 0.91 6.9
8/12/2021 12:30:00 AM 23.99 75.182 0.159 7.19 0.81 6.94
8/12/2021 12:45:00 AM 23.93 75.074 0.159 7.19 0.75 6.94
8/12/2021 1:00:00 AM 23.85 74.93 0.159 7.19 0.74 6.95
8/12/2021 1:15:00 AM 23.78 74.804 0.159 7.19 1.02 6.97
8/12/2021 1:30:00 AM 23.71 74.67799 0.159 7.18 0.79 6.96
8/12/2021 1:45:00 AM 23.65 74.57 0.159 7.18 0.71 7.02
8/12/2021 2:00:00 AM 23.58 74.444 0.159 7.18 0.8 6.98
8/12/2021 2:15:00 AM 23.51 74.318 0.159 7.17 1.16 7.02
8/12/2021 2:30:00 AM 23.44 74.192 0.158 7.18 0.88 6.99
8/12/2021 2:45:00 AM 23.37 74.066 0.158 7.16 0.97 7.04
8/12/2021 3:00:00 AM 23.32 73.976 0.158 7.18 0.77 7.05
8/12/2021 3:15:00 AM 23.28 73.904 0.158 7.17 0.82 7.05
8/12/2021 3:30:00 AM 23.24 73.832 0.158 7.17 0.73 7.03
8/12/2021 3:45:00 AM 23.19 73.742 0.158 7.17 0.85 7.1
8/12/2021 4:00:00 AM 23.14 73.652 0.158 7.17 0.88 7.08
8/12/2021 4:15:00 AM 23.12 73.616 0.158 7.17 0.76 7.11
8/12/2021 4:30:00 AM 23.09 73.562 0.158 7.16 1.09 7.09
8/12/2021 4:45:00 AM 23.07 73.526 0.158 7.18 0.78 7.14
8/12/2021 5:00:00 AM 23.04 73.472 0.158 7.16 0.71 7.13
8/12/2021 5:15:00 AM 23 73.4 0.158 7.17 0.78 7.16
8/12/2021 5:30:00 AM 22.95 73.31 0.158 7.16 0.93 7.15
8/12/2021 5:45:00 AM 22.93 73.274 0.158 7.17 0.83 7.15
8/12/2021 6:00:00 AM 22.91 73.238 0.158 7.15 0.71 7.16
8/12/2021 6:15:00 AM 22.89 73.202 0.158 7.16 0.89 7.18
8/12/2021 6:30:00 AM 22.88 73.184 0.158 7.16 0.88 7.18
8/12/2021 6:45:00 AM 22.86 73.148 0.158 7.17 0.83 7.14
8/12/2021 7:00:00 AM 22.85 73.13 0.158 7.16 0.74 7.25
8/12/2021 7:15:00 AM 22.85 73.13 0.158 7.18 0.75 7.34
8/12/2021 7:30:00 AM 22.84 73.112 0.157 7.19 0.89 7.44
8/12/2021 7:45:00 AM 22.84 73.112 0.157 7.22 0.84 7.54
8/12/2021 8:00:00 AM 22.83 73.094 0.157 7.24 0.84 7.6
8/12/2021 8:15:00 AM 22.85 73.13 0.157 7.26 0.91 7.78
8/12/2021 8:30:00 AM 22.88 73.184 0.157 7.28 0.8 7.9
8/12/2021 8:45:00 AM 22.92 73.256 0.156 7.3 0.75 8
8/12/2021 9:00:00 AM 22.97 73.346 0.156 7.32 1.24 8.03
8/12/2021 9:15:00 AM 23.04 73.472 0.156 7.35 0.88 8.18
8/12/2021 9:30:00 AM 23.11 73.598 0.156 7.38 0.71 8.24
8/12/2021 9:45:00 AM 23.19 73.742 0.156 7.4 0.68 8.3
8/12/2021 10:00:00 AM 23.28 73.904 0.156 7.42 0.73 8.34
8/12/2021 10:15:00 AM 23.38 74.084 0.156 7.46 0.69 8.41
8/12/2021 10:30:00 AM 23.49 74.282 0.155 7.49 0.64 8.47
8/12/2021 10:45:00 AM 23.63 74.534 0.155 7.52 0.7 8.54
8/12/2021 11:00:00 AM 23.79 74.82201 0.155 7.59 0.63 8.71
8/12/2021 11:15:00 AM 23.95 75.11 0.155 7.67 0.72 8.78
8/12/2021 11:30:00 AM 24.07 75.326 0.155 7.71 0.61 8.69
8/12/2021 11:45:00 AM 24.22 75.596 0.154 7.75 0.52 8.85
8/12/2021 12:00:00 PM 24.38 75.884 0.154 7.81 0.63 8.84
8/12/2021 12:15:00 PM 24.61 76.298 0.154 7.9 0.57 8.94
8/12/2021 12:30:00 PM 24.91 76.838 0.154 7.98 0.85 8.98
8/12/2021 12:45:00 PM 25.2 77.36 0.154 8.05 0.61 9.07
8/12/2021 1:00:00 PM 25.39 77.702 0.153 8.11 0.6 9.04
8/12/2021 1:15:00 PM 25.62 78.116 0.153 8.16 0.55 8.58
8/12/2021 1:30:00 PM 25.7 78.26 0.153 8.13 0.55 8.85
8/12/2021 1:45:00 PM 25.56 78.008 0.153 7.97 0.56 8.51
8/12/2021 2:00:00 PM 25 77 0.146 7.67 1.64 8.03
8/12/2021 2:15:00 PM 25.09 77.162 0.13 8.03 45.03 7.77
8/12/2021 2:30:00 PM 24.82 76.676 0.143 7.79 9.94 7.74
8/12/2021 2:45:00 PM 24.98 76.964 0.145 7.72 2.68 8.16
8/12/2021 3:00:00 PM 25.42 77.756 0.146 7.84 1.39 8.42
8/12/2021 3:15:00 PM 25.8 78.44 0.147 7.95 1.34 8.52
8/12/2021 3:30:00 PM 26 78.8 0.146 8.02 1.06 8.6
8/12/2021 3:45:00 PM 26.12 79.016 0.145 8.09 1.03 8.68
8/12/2021 4:00:00 PM 26.26 79.268 0.145 8.13 1.13 8.66
8/12/2021 4:15:00 PM 26.44 79.592 0.145 8.18 1.15 8.76
8/12/2021 4:30:00 PM 26.45 79.61 0.146 8.19 1.02 8.71
8/12/2021 4:45:00 PM 26.34 79.412 0.147 8.17 1.2 8.65
8/12/2021 5:00:00 PM 26.15 79.07 0.148 8.1 1.1 8.5
8/12/2021 5:15:00 PM 26.04 78.872 0.148 8.06 0.84 8.43
8/12/2021 5:30:00 PM 26.07 78.926 0.149 8.05 0.96 8.38
8/12/2021 5:45:00 PM 25.89 78.602 0.15 7.91 0.92 8.14
8/12/2021 6:00:00 PM 25.82 78.476 0.15 7.87 0.98 8.09
8/12/2021 6:15:00 PM 25.8 78.44 0.151 7.83 0.7 8.03
8/12/2021 6:30:00 PM 25.71 78.278 0.151 7.73 0.78 7.84
8/12/2021 6:45:00 PM 25.63 78.134 0.152 7.63 0.86 7.62
8/12/2021 7:00:00 PM 25.56 78.008 0.153 7.55 0.64 7.49
8/12/2021 7:15:00 PM 25.49 77.882 0.153 7.49 0.69 7.34
8/12/2021 7:30:00 PM 25.41 77.738 0.154 7.44 0.76 7.19
8/12/2021 7:45:00 PM 25.33 77.594 0.154 7.4 0.68 7.13
8/12/2021 8:00:00 PM 25.26 77.468 0.155 7.36 0.88 7.01
8/12/2021 8:15:00 PM 25.16 77.288 0.154 7.33 1.34 6.93
8/12/2021 8:30:00 PM 25.01 77.018 0.153 7.3 1.23 6.96
8/12/2021 8:45:00 PM 24.91 76.838 0.153 7.35 3.94 6.83
8/12/2021 9:00:00 PM 24.8 76.64 0.154 7.29 1.88 6.86
8/12/2021 9:15:00 PM 24.66 76.388 0.152 7.26 1.34 6.9
8/12/2021 9:30:00 PM 24.59 76.262 0.152 7.33 5.15 6.84
8/12/2021 9:45:00 PM 24.51 76.118 0.152 7.26 2.65 6.84
8/12/2021 10:00:00 PM 24.44 75.992 0.153 7.24 1.39 6.78
8/12/2021 10:15:00 PM 24.38 75.884 0.153 7.22 1.03 6.86
8/12/2021 10:30:00 PM 24.33 75.794 0.153 7.21 0.98 6.83
8/12/2021 10:45:00 PM 24.28 75.704 0.154 7.21 0.98 6.87
8/12/2021 11:00:00 PM 24.24 75.632 0.154 7.21 0.9 6.81
8/12/2021 11:15:00 PM 24.21 75.578 0.154 7.2 0.99 6.88
8/12/2021 11:30:00 PM 24.18 75.524 0.155 7.2 0.98 6.92
8/12/2021 11:45:00 PM 24.16 75.488 0.155 7.19 0.95 6.88
8/13/2021 12:00:00 AM 24.12 75.416 0.155 7.21 0.96 6.91
8/13/2021 12:15:00 AM 24.1 75.38 0.155 7.2 1.09 6.95
8/13/2021 12:30:00 AM 24.07 75.326 0.154 7.19 1.11 6.93
8/13/2021 12:45:00 AM 24.04 75.272 0.154 7.19 1.15 6.96
8/13/2021 1:00:00 AM 24.01 75.218 0.154 7.19 1.11 6.96
8/13/2021 1:15:00 AM 23.99 75.182 0.153 7.18 1.27 6.97
8/13/2021 1:30:00 AM 23.96 75.128 0.153 7.19 1.39 7.03
8/13/2021 1:45:00 AM 23.93 75.074 0.153 7.18 1.7 7.1
8/13/2021 2:00:00 AM 23.89 75.002 0.153 7.18 1.61 7.13
8/13/2021 2:15:00 AM 23.86 74.948 0.153 7.17 1.66 7.16
8/13/2021 2:30:00 AM 23.84 74.912 0.154 7.17 2.2 7.18
8/13/2021 2:45:00 AM 23.85 74.93 0.154 7.18 2.28 7.21
8/13/2021 3:00:00 AM 23.87 74.966 0.154 7.19 1.97 7.23
8/13/2021 3:15:00 AM 23.9 75.02 0.154 7.19 2.32 7.24
8/13/2021 3:30:00 AM 23.95 75.11 0.155 7.2 2.18 7.25
8/13/2021 3:45:00 AM 24 75.2 0.155 7.2 2.56 7.26
8/13/2021 4:00:00 AM 24.04 75.272 0.155 7.21 2.41 7.27
8/13/2021 4:15:00 AM 24.06 75.308 0.155 7.2 3.06 7.29
8/13/2021 4:30:00 AM 24.07 75.326 0.155 7.19 2.67 7.31
8/13/2021 4:45:00 AM 24.05 75.29 0.155 7.18 2.72 7.33
8/13/2021 5:00:00 AM 24.01 75.218 0.155 7.17 2.62 7.35
8/13/2021 5:15:00 AM 23.95 75.11 0.155 7.19 2.87 7.38
8/13/2021 5:30:00 AM 23.87 74.966 0.155 7.18 2.8 7.41
8/13/2021 5:45:00 AM 23.77 74.786 0.156 7.17 2.93 7.44
8/13/2021 6:00:00 AM 23.65 74.57 0.156 7.16 3.16 7.47
8/13/2021 6:15:00 AM 23.55 74.39 0.156 7.16 2.87 7.5
8/13/2021 6:30:00 AM 23.45 74.21 0.157 7.15 3.19 7.53
8/13/2021 6:45:00 AM 23.38 74.084 0.157 7.17 2.98 7.57
8/13/2021 7:00:00 AM 23.32 73.976 0.157 7.18 2.97 7.62
8/13/2021 7:15:00 AM 23.27 73.886 0.157 7.19 3.06 7.66
8/13/2021 7:30:00 AM 23.23 73.814 0.158 7.2 3.46 7.72
8/13/2021 7:45:00 AM 23.2 73.76 0.158 7.22 3.24 7.79
8/13/2021 8:00:00 AM 23.16 73.688 0.158 7.23 2.7 7.88
8/13/2021 8:15:00 AM 23.12 73.616 0.158 7.25 2.62 7.96
8/13/2021 8:30:00 AM 23.09 73.562 0.158 7.27 2.94 8.05
8/13/2021 8:45:00 AM 23.05 73.49 0.158 7.3 2.87 8.14
8/13/2021 9:00:00 AM 23.01 73.418 0.158 7.31 2.89 8.18
8/13/2021 9:15:00 AM 22.95 73.31 0.158 7.3 2.79 8.18
8/13/2021 9:30:00 AM 22.89 73.202 0.158 7.3 2.71 8.2
8/13/2021 9:45:00 AM 22.85 73.13 0.158 7.31 2.62 8.24
8/13/2021 10:00:00 AM 22.81 73.058 0.159 7.32 3.93 8.29
8/13/2021 10:15:00 AM 22.78 73.004 0.159 7.32 2.53 8.32
8/13/2021 10:30:00 AM 22.77 72.986 0.159 7.34 2.65 8.37
8/13/2021 10:45:00 AM 22.78 73.004 0.16 7.37 2.66 8.44
8/13/2021 11:00:00 AM 22.82 73.076 0.16 7.39 2.57 8.49
8/13/2021 11:15:00 AM 22.87 73.166 0.161 7.41 2.66 8.54
8/13/2021 11:30:00 AM 22.97 73.346 0.161 7.46 2.49 8.63
8/13/2021 11:45:00 AM 23.1 73.58 0.161 7.51 2.74 8.7
8/13/2021 12:00:00 PM 23.26 73.868 0.161 7.54 2.87 8.75
8/13/2021 12:15:00 PM 23.45 74.21 0.161 7.56 2.69 8.8
8/13/2021 12:30:00 PM 23.67 74.606 0.161 7.62 2.52 8.87
8/13/2021 12:45:00 PM 23.85 74.93 0.161 7.69 2.44 8.94
8/13/2021 1:00:00 PM 23.94 75.092 0.161 7.72 2.36 8.97
8/13/2021 1:15:00 PM 24.03 75.254 0.161 7.75 2.4 8.98
8/13/2021 1:30:00 PM 24.11 75.398 0.161 7.79 2.35 8.99
8/13/2021 1:45:00 PM 24.25 75.65 0.16 7.83 2.33 9
8/13/2021 2:00:00 PM 24.39 75.902 0.16 7.87 2.17 9.04
8/13/2021 2:15:00 PM 24.56 76.208 0.16 7.93 2.33 9.07
8/13/2021 2:30:00 PM 24.76 76.568 0.16 7.97 2.22 9.06
8/13/2021 2:45:00 PM 25.03 77.054 0.159 8.01 2.35 9.07
8/13/2021 3:00:00 PM 25.24 77.432 0.159 8.05 2.33 9.06
8/13/2021 3:15:00 PM 25.42 77.756 0.159 8.06 2.35 9.05
8/13/2021 3:30:00 PM 25.45 77.81 0.159 8.05 2.29 9.01
8/13/2021 3:45:00 PM 25.11 77.198 0.159 7.83 2.23 8.69
8/13/2021 4:00:00 PM 24.85 76.73 0.159 7.66 2.37 8.5
8/13/2021 4:15:00 PM 24.62 76.316 0.156 7.56 2.57 8.41
8/13/2021 4:30:00 PM 24.63 76.334 0.156 7.66 3.43 8.52
8/13/2021 4:45:00 PM 24.55 76.19 0.156 7.71 2.54 8.65
8/13/2021 5:00:00 PM 24.37 75.866 0.156 7.69 2.5 8.63
8/13/2021 5:15:00 PM 24.14 75.452 0.156 7.62 2.4 8.52
8/13/2021 5:30:00 PM 23.95 75.11 0.156 7.54 2.52 8.42
8/13/2021 5:45:00 PM 23.81 74.858 0.156 7.47 2.45 8.26
8/13/2021 6:00:00 PM 23.81 74.858 0.156 7.51 2.37 8.34
8/13/2021 6:15:00 PM 23.76 74.768 0.156 7.52 2.49 8.33
8/13/2021 6:30:00 PM 23.68 74.624 0.156 7.49 2.35 8.27
8/13/2021 6:45:00 PM 23.55 74.39 0.156 7.45 2.45 8.16
8/13/2021 7:00:00 PM 23.43 74.174 0.155 7.41 2.45 8.13
8/13/2021 7:15:00 PM 23.32 73.976 0.155 7.38 2.5 8.09
8/13/2021 7:30:00 PM 23.24 73.832 0.155 7.36 2.66 8.02
8/13/2021 7:45:00 PM 23.21 73.778 0.155 7.34 2.61 7.93
8/13/2021 8:00:00 PM 23.25 73.85 0.155 7.33 2.71 7.83
8/13/2021 8:15:00 PM 23.33 73.994 0.155 7.32 2.78 7.73
8/13/2021 8:30:00 PM 23.45 74.21 0.155 7.31 2.7 7.64
8/13/2021 8:45:00 PM 23.56 74.408 0.155 7.31 2.65 7.57
8/13/2021 9:00:00 PM 23.65 74.57 0.154 7.29 2.79 7.52
8/13/2021 9:15:00 PM 23.71 74.67799 0.154 7.28 2.71 7.48
8/13/2021 9:30:00 PM 23.73 74.714 0.154 7.27 2.55 7.46
8/13/2021 9:45:00 PM 23.72 74.696 0.154 7.25 2.51 7.46
8/13/2021 10:00:00 PM 23.67 74.606 0.154 7.25 2.66 7.46
8/13/2021 10:15:00 PM 23.6 74.48 0.154 7.23 2.55 7.47
8/13/2021 10:30:00 PM 23.5 74.3 0.154 7.22 2.67 7.49
8/13/2021 10:45:00 PM 23.41 74.138 0.154 7.21 2.51 7.5
8/13/2021 11:00:00 PM 23.32 73.976 0.154 7.2 2.54 7.52
8/13/2021 11:15:00 PM 23.25 73.85 0.154 7.19 2.48 7.53
8/13/2021 11:30:00 PM 23.21 73.778 0.154 7.18 2.3 7.53
8/13/2021 11:45:00 PM 23.19 73.742 0.154 7.19 2.39 7.54
8/14/2021 12:00:00 AM 23.18 73.724 0.153 7.18 2.59 7.56
8/14/2021 12:15:00 AM 23.2 73.76 0.153 7.22 4.44 7.54
8/14/2021 12:30:00 AM 23.17 73.706 0.154 7.2 2.79 7.53
8/14/2021 12:45:00 AM 23.16 73.688 0.154 7.18 2.66 7.54
8/14/2021 1:00:00 AM 23.15 73.67 0.153 7.19 2.49 7.55
8/14/2021 1:15:00 AM 23.14 73.652 0.153 7.19 2.52 7.55
8/14/2021 1:30:00 AM 23.12 73.616 0.153 7.18 2.53 7.55
8/14/2021 1:45:00 AM 23.07 73.526 0.153 7.18 2.42 7.57
8/14/2021 2:00:00 AM 23 73.4 0.153 7.17 2.54 7.59
8/14/2021 2:15:00 AM 22.93 73.274 0.152 7.16 2.63 7.6
8/14/2021 2:30:00 AM 22.87 73.166 0.152 7.16 2.84 7.61
8/14/2021 2:45:00 AM 22.82 73.076 0.152 7.16 2.61 7.62
8/14/2021 3:00:00 AM 22.78 73.004 0.152 7.16 2.51 7.62
8/14/2021 3:15:00 AM 22.76 72.968 0.151 7.16 2.73 7.63
8/14/2021 3:30:00 AM 22.75 72.95 0.151 7.16 2.6 7.63
8/14/2021 3:45:00 AM 22.74 72.932 0.151 7.17 2.59 7.63
8/14/2021 4:00:00 AM 22.72 72.896 0.151 7.17 2.55 7.64
8/14/2021 4:15:00 AM 22.71 72.878 0.15 7.17 2.59 7.65
8/14/2021 4:30:00 AM 22.7 72.86 0.15 7.17 2.65 7.65
8/14/2021 4:45:00 AM 22.67 72.806 0.15 7.16 2.67 7.66
8/14/2021 5:00:00 AM 22.64 72.752 0.149 7.17 2.68 7.66
8/14/2021 5:15:00 AM 22.61 72.698 0.149 7.16 2.78 7.67
8/14/2021 5:30:00 AM 22.58 72.644 0.148 7.16 2.62 7.67
8/14/2021 5:45:00 AM 22.55 72.59 0.148 7.16 3.06 7.67
8/14/2021 6:00:00 AM 22.52 72.536 0.148 7.15 2.9 7.68
8/14/2021 6:15:00 AM 22.51 72.518 0.147 7.15 2.93 7.68
8/14/2021 6:30:00 AM 22.49 72.482 0.147 7.15 3.13 7.69
8/14/2021 6:45:00 AM 22.48 72.464 0.147 7.15 2.87 7.7
8/14/2021 7:00:00 AM 22.47 72.446 0.147 7.16 2.79 7.72
8/14/2021 7:15:00 AM 22.48 72.464 0.147 7.17 2.88 7.79
8/14/2021 7:30:00 AM 22.48 72.464 0.147 7.19 2.61 7.81
8/14/2021 7:45:00 AM 22.48 72.464 0.146 7.19 2.62 7.92
8/14/2021 8:00:00 AM 22.48 72.464 0.146 7.23 2.69 7.99
8/14/2021 8:15:00 AM 22.47 72.446 0.146 7.22 2.53 8.01
8/14/2021 8:30:00 AM 22.47 72.446 0.146 7.23 2.67 8.04
8/14/2021 8:45:00 AM 22.47 72.446 0.146 7.24 2.63 8.1
8/14/2021 9:00:00 AM 22.48 72.464 0.146 7.26 2.55 8.15
8/14/2021 9:15:00 AM 22.49 72.482 0.146 7.3 2.34 8.24
8/14/2021 9:30:00 AM 22.5 72.5 0.147 7.29 2.3 8.25
8/14/2021 9:45:00 AM 22.49 72.482 0.147 7.29 2.37 8.25
8/14/2021 10:00:00 AM 22.52 72.536 0.147 7.33 2.3 8.36
8/14/2021 10:15:00 AM 22.46 72.42799 0.147 7.32 2.26 8.31
8/14/2021 10:30:00 AM 22.38 72.284 0.147 7.3 2.21 8.23
8/14/2021 10:45:00 AM 22.34 72.212 0.148 7.29 2.15 8.26
8/14/2021 11:00:00 AM 22.33 72.194 0.148 7.34 2.07 8.41
8/14/2021 11:15:00 AM 22.39 72.302 0.149 7.41 2.14 8.65
8/14/2021 11:30:00 AM 22.43 72.374 0.149 7.49 2.18 8.8
8/14/2021 11:45:00 AM 22.45 72.41 0.15 7.54 2.09 8.94
8/14/2021 12:00:00 PM 22.47 72.446 0.151 7.61 1.95 9.01
8/14/2021 12:15:00 PM 22.44 72.392 0.152 7.61 2.04 8.99
8/14/2021 12:30:00 PM 22.42 72.356 0.153 7.61 2 8.99
8/14/2021 12:45:00 PM 22.44 72.392 0.153 7.66 2.09 9.08
8/14/2021 1:00:00 PM 22.48 72.464 0.154 7.73 1.86 9.15
8/14/2021 1:15:00 PM 22.51 72.518 0.154 7.78 1.95 9.19
8/14/2021 1:30:00 PM 22.55 72.59 0.154 7.83 1.88 9.22
8/14/2021 1:45:00 PM 22.62 72.716 0.154 7.89 1.81 9.31
8/14/2021 2:00:00 PM 22.71 72.878 0.154 7.97 1.91 9.37
8/14/2021 2:15:00 PM 22.81 73.058 0.153 8.03 1.86 9.38
8/14/2021 2:30:00 PM 23.07 73.526 0.152 8.07 1.77 9.39
8/14/2021 2:45:00 PM 23.51 74.318 0.151 8.14 1.85 9.37
8/14/2021 3:00:00 PM 23.92 75.056 0.151 8.15 1.94 9.33
8/14/2021 3:15:00 PM 24.25 75.65 0.15 8.17 1.73 9.27
8/14/2021 3:30:00 PM 24.52 76.136 0.149 8.17 1.71 9.22
8/14/2021 3:45:00 PM 24.7 76.46 0.149 8.16 1.74 9.16
8/14/2021 4:00:00 PM 24.84 76.712 0.148 8.15 1.7 9.1
8/14/2021 4:15:00 PM 24.93 76.874 0.148 8.13 1.7 9.03
8/14/2021 4:30:00 PM 24.95 76.91 0.148 8.11 1.61 8.93
8/14/2021 4:45:00 PM 24.91 76.838 0.148 8.04 1.61 8.84
8/14/2021 5:00:00 PM 24.82 76.676 0.148 7.98 1.69 8.72
8/14/2021 5:15:00 PM 24.65 76.37 0.148 7.84 1.64 8.54
8/14/2021 5:30:00 PM 24.46 76.028 0.149 7.71 1.61 8.34
8/14/2021 5:45:00 PM 24.32 75.776 0.149 7.63 1.64 8.24
8/14/2021 6:00:00 PM 24.21 75.578 0.149 7.54 1.55 8.13
8/14/2021 6:15:00 PM 24.12 75.416 0.15 7.5 1.72 8.06
8/14/2021 6:30:00 PM 24.02 75.236 0.15 7.47 1.63 8
8/14/2021 6:45:00 PM 23.89 75.002 0.151 7.43 1.65 7.95
8/14/2021 7:00:00 PM 23.75 74.75 0.151 7.4 1.73 7.9
8/14/2021 7:15:00 PM 23.6 74.48 0.152 7.37 1.59 7.86
8/14/2021 7:30:00 PM 23.45 74.21 0.152 7.32 1.72 7.82
8/14/2021 7:45:00 PM 23.3 73.94 0.152 7.31 1.69 7.79
8/14/2021 8:00:00 PM 23.16 73.688 0.152 7.3 1.68 7.76
8/14/2021 8:15:00 PM 23.04 73.472 0.153 7.26 2.17 7.72
8/14/2021 8:30:00 PM 22.93 73.274 0.153 7.27 1.99 7.69
8/14/2021 8:45:00 PM 22.83 73.094 0.153 7.24 1.89 7.67
8/14/2021 9:00:00 PM 22.74 72.932 0.153 7.25 2.17 7.65
8/14/2021 9:15:00 PM 22.65 72.77 0.153 7.22 2 7.65
8/14/2021 9:30:00 PM 22.57 72.626 0.153 7.23 1.98 7.65
8/14/2021 9:45:00 PM 22.48 72.464 0.153 7.23 1.97 7.66
8/14/2021 10:00:00 PM 22.37 72.266 0.154 7.22 2.03 7.67
8/14/2021 10:15:00 PM 22.26 72.068 0.154 7.21 1.96 7.68
8/14/2021 10:30:00 PM 22.15 71.87 0.154 7.19 2.08 7.7
8/14/2021 10:45:00 PM 22.02 71.636 0.154 7.21 1.94 7.73
8/14/2021 11:00:00 PM 21.91 71.438 0.155 7.2 1.95 7.74
8/14/2021 11:15:00 PM 21.79 71.222 0.155 7.18 1.98 7.77
8/14/2021 11:30:00 PM 21.68 71.024 0.155 7.19 1.93 7.78
8/14/2021 11:45:00 PM 21.58 70.844 0.155 7.19 1.9 7.8
8/15/2021 12:00:00 AM 21.48 70.664 0.155 7.19 2.05 7.82
8/15/2021 12:15:00 AM 21.39 70.502 0.155 7.17 1.87 7.84
8/15/2021 12:30:00 AM 21.31 70.358 0.155 7.19 3.93 7.85
8/15/2021 12:45:00 AM 21.25 70.25 0.155 7.18 1.8 7.87
8/15/2021 1:00:00 AM 21.19 70.142 0.155 7.19 1.84 7.87
8/15/2021 1:15:00 AM 21.15 70.07 0.155 7.18 1.85 7.89
8/15/2021 1:30:00 AM 21.11 69.998 0.155 7.2 1.91 7.89
8/15/2021 1:45:00 AM 21.08 69.944 0.154 7.19 1.81 7.9
8/15/2021 2:00:00 AM 21.06 69.908 0.154 7.21 1.78 7.9
8/15/2021 2:15:00 AM 21.03 69.854 0.154 7.19 1.82 7.91
8/15/2021 2:30:00 AM 21.01 69.818 0.154 7.2 1.9 7.92
8/15/2021 2:45:00 AM 21 69.8 0.154 7.21 1.87 7.91
8/15/2021 3:00:00 AM 20.98 69.764 0.154 7.18 1.81 7.92
8/15/2021 3:15:00 AM 20.96 69.728 0.154 7.19 1.84 7.92
8/15/2021 3:30:00 AM 20.95 69.71 0.154 7.19 1.79 7.93
8/15/2021 3:45:00 AM 20.94 69.692 0.154 7.19 1.77 7.93
8/15/2021 4:00:00 AM 20.92 69.656 0.153 7.18 1.84 7.93
8/15/2021 4:15:00 AM 20.9 69.62 0.153 7.2 1.75 7.93
8/15/2021 4:30:00 AM 20.88 69.584 0.153 7.18 1.68 7.94
8/15/2021 4:45:00 AM 20.87 69.566 0.153 7.18 1.79 7.94
8/15/2021 5:00:00 AM 20.85 69.53 0.153 7.18 1.85 7.94
8/15/2021 5:15:00 AM 20.83 69.494 0.153 7.19 1.93 7.95
8/15/2021 5:30:00 AM 20.81 69.458 0.153 7.18 1.81 7.95
8/15/2021 5:45:00 AM 20.79 69.422 0.153 7.18 1.9 7.95
8/15/2021 6:00:00 AM 20.79 69.422 0.153 7.19 1.72 7.95
8/15/2021 6:15:00 AM 20.78 69.404 0.153 7.18 1.82 7.95
8/15/2021 6:30:00 AM 20.77 69.386 0.153 7.19 1.73 7.96
8/15/2021 6:45:00 AM 20.76 69.368 0.152 7.18 1.74 7.98
8/15/2021 7:00:00 AM 20.75 69.35 0.152 7.2 1.76 8
8/15/2021 7:15:00 AM 20.75 69.35 0.152 7.18 1.62 8.03
8/15/2021 7:30:00 AM 20.75 69.35 0.152 7.21 1.76 8.11
8/15/2021 7:45:00 AM 20.75 69.35 0.152 7.23 1.6 8.21
8/15/2021 8:00:00 AM 20.74 69.332 0.152 7.26 1.75 8.31
8/15/2021 8:15:00 AM 20.75 69.35 0.152 7.27 1.51 8.44
8/15/2021 8:30:00 AM 20.76 69.368 0.151 7.3 1.62 8.54
8/15/2021 8:45:00 AM 20.75 69.35 0.151 7.33 1.55 8.63
8/15/2021 9:00:00 AM 20.74 69.332 0.151 7.35 1.41 8.72
8/15/2021 9:15:00 AM 20.74 69.332 0.151 7.4 1.47 8.81
8/15/2021 9:30:00 AM 20.77 69.386 0.151 7.42 1.6 8.91
8/15/2021 9:45:00 AM 20.81 69.458 0.151 7.47 1.47 8.98
8/15/2021 10:00:00 AM 20.85 69.53 0.151 7.48 1.49 9.03
8/15/2021 10:15:00 AM 20.92 69.656 0.151 7.53 1.39 9.11
8/15/2021 10:30:00 AM 20.99 69.782 0.15 7.57 1.39 9.14
8/15/2021 10:45:00 AM 21.07 69.926 0.15 7.59 1.37 9.17
8/15/2021 11:00:00 AM 21.15 70.07 0.15 7.64 1.41 9.22
8/15/2021 11:15:00 AM 21.26 70.268 0.15 7.69 1.32 9.31
8/15/2021 11:30:00 AM 21.42 70.556 0.149 7.78 1.58 9.42
8/15/2021 11:45:00 AM 21.57 70.826 0.149 7.85 1.26 9.5
8/15/2021 12:00:00 PM 21.71 71.078 0.149 7.93 1.38 9.53
8/15/2021 12:15:00 PM 21.84 71.312 0.149 7.99 1.22 9.58
8/15/2021 12:30:00 PM 21.94 71.492 0.149 8.04 1.32 9.58
8/15/2021 12:45:00 PM 22.06 71.708 0.148 8.08 1.34 9.57
8/15/2021 1:00:00 PM 22.27 72.086 0.148 8.13 1.18 9.6
8/15/2021 1:15:00 PM 22.56 72.608 0.148 8.19 1.12 9.62
8/15/2021 1:30:00 PM 22.8 73.04 0.148 8.25 1.14 9.61
8/15/2021 1:45:00 PM 22.97 73.346 0.148 8.28 1.17 9.61
8/15/2021 2:00:00 PM 23.16 73.688 0.148 8.33 1.11 9.61
8/15/2021 2:15:00 PM 23.33 73.994 0.148 8.35 1.07 9.6
8/15/2021 2:30:00 PM 23.51 74.318 0.148 8.38 1.04 9.58
8/15/2021 2:45:00 PM 23.7 74.66 0.148 8.41 1.04 9.57
8/15/2021 3:00:00 PM 23.94 75.092 0.148 8.42 1.13 9.54
8/15/2021 3:15:00 PM 24.1 75.38 0.149 8.44 1.06 9.53
8/15/2021 3:30:00 PM 24.35 75.83 0.149 8.46 1.17 9.5
8/15/2021 3:45:00 PM 24.39 75.902 0.149 8.44 1.07 9.45
8/15/2021 4:00:00 PM 24.21 75.578 0.149 8.4 1.06 9.36
8/15/2021 4:15:00 PM 24 75.2 0.149 8.34 1.04 9.28
8/15/2021 4:30:00 PM 23.97 75.146 0.15 8.32 1.06 9.26
8/15/2021 4:45:00 PM 23.92 75.056 0.15 8.31 1.15 9.23
8/15/2021 5:00:00 PM 23.87 74.966 0.15 8.29 1.07 9.19
8/15/2021 5:15:00 PM 23.78 74.804 0.15 8.27 1.09 9.14
8/15/2021 5:30:00 PM 23.66 74.588 0.15 8.21 1.12 9.07
8/15/2021 5:45:00 PM 23.51 74.318 0.151 8.13 1.15 8.96
8/15/2021 6:00:00 PM 23.4 74.12 0.151 8.06 1.16 8.89
8/15/2021 6:15:00 PM 23.26 73.868 0.151 7.98 1.02 8.78
8/15/2021 6:30:00 PM 23.14 73.652 0.151 7.87 1.06 8.67
8/15/2021 6:45:00 PM 23.03 73.454 0.152 7.79 1.03 8.54
8/15/2021 7:00:00 PM 22.92 73.256 0.152 7.68 1.08 8.41
8/15/2021 7:15:00 PM 22.82 73.076 0.152 7.62 1.13 8.31
8/15/2021 7:30:00 PM 22.72 72.896 0.152 7.56 1.1 8.22
8/15/2021 7:45:00 PM 22.62 72.716 0.153 7.51 1.1 8.11
8/15/2021 8:00:00 PM 22.51 72.518 0.153 7.46 1.09 8
8/15/2021 8:15:00 PM 22.4 72.32 0.153 7.42 1.16 7.91
8/15/2021 8:30:00 PM 22.28 72.104 0.154 7.36 1.34 7.86
8/15/2021 8:45:00 PM 22.18 71.924 0.154 7.35 1.33 7.81
8/15/2021 9:00:00 PM 22.07 71.726 0.154 7.33 1.37 7.78
8/15/2021 9:15:00 PM 21.97 71.546 0.154 7.29 1.29 7.77
8/15/2021 9:30:00 PM 21.88 71.384 0.154 7.28 1.31 7.75
8/15/2021 9:45:00 PM 21.79 71.222 0.154 7.27 1.34 7.75
8/15/2021 10:00:00 PM 21.71 71.078 0.154 7.28 1.24 7.75
8/15/2021 10:15:00 PM 21.64 70.952 0.154 7.25 1.33 7.75
8/15/2021 10:30:00 PM 21.57 70.826 0.155 7.25 1.15 7.75
8/15/2021 10:45:00 PM 21.51 70.718 0.155 7.25 1.23 7.75
8/15/2021 11:00:00 PM 21.45 70.61 0.155 7.25 1.29 7.76
8/15/2021 11:15:00 PM 21.38 70.484 0.155 7.23 1.45 7.77
8/15/2021 11:30:00 PM 21.32 70.376 0.155 7.23 1.24 7.77
8/15/2021 11:45:00 PM 21.26 70.268 0.155 7.23 1.2 7.78
8/16/2021 12:00:00 AM 21.2 70.16 0.155 7.22 1.31 7.79
8/16/2021 12:15:00 AM 21.14 70.052 0.155 7.21 1.36 7.8
8/16/2021 12:30:00 AM 21.08 69.944 0.155 7.21 1.27 7.81
8/16/2021 12:45:00 AM 21.03 69.854 0.155 7.22 1.32 7.82
8/16/2021 1:00:00 AM 20.98 69.764 0.155 7.22 1.24 7.83
8/16/2021 1:15:00 AM 20.93 69.674 0.155 7.2 1.32 7.85
8/16/2021 1:30:00 AM 20.88 69.584 0.155 7.22 1.2 7.85
8/16/2021 1:45:00 AM 20.84 69.512 0.155 7.2 1.25 7.87
8/16/2021 2:00:00 AM 20.8 69.44 0.155 7.2 1.29 7.88
8/16/2021 2:15:00 AM 20.76 69.368 0.155 7.2 1.59 7.88
8/16/2021 2:30:00 AM 20.73 69.314 0.155 7.2 1.3 7.88
8/16/2021 2:45:00 AM 20.7 69.26 0.155 7.19 1.26 7.89
8/16/2021 3:00:00 AM 20.67 69.206 0.155 7.19 1.31 7.9
8/16/2021 3:15:00 AM 20.64 69.152 0.155 7.19 1.33 7.91
8/16/2021 3:30:00 AM 20.62 69.116 0.155 7.18 1.25 7.91
8/16/2021 3:45:00 AM 20.6 69.08 0.154 7.18 1.16 7.91
8/16/2021 4:00:00 AM 20.58 69.044 0.154 7.2 1.14 7.91
8/16/2021 4:15:00 AM 20.57 69.026 0.154 7.18 1.12 7.92
8/16/2021 4:30:00 AM 20.55 68.99 0.154 7.19 1.22 7.91
8/16/2021 4:45:00 AM 20.54 68.972 0.154 7.19 1.28 7.92
8/16/2021 5:00:00 AM 20.53 68.954 0.154 7.19 1.16 7.93
8/16/2021 5:15:00 AM 20.51 68.918 0.154 7.19 1.33 7.92
8/16/2021 5:30:00 AM 20.5 68.9 0.154 7.17 1.15 7.92
8/16/2021 5:45:00 AM 20.48 68.864 0.154 7.19 1.26 7.93
8/16/2021 6:00:00 AM 20.47 68.846 0.154 7.19 1.25 7.93
8/16/2021 6:15:00 AM 20.46 68.828 0.154 7.18 1.17 7.93
8/16/2021 6:30:00 AM 20.45 68.81 0.154 7.18 1.16 7.93
8/16/2021 6:45:00 AM 20.45 68.81 0.154 7.19 1.18 7.94
8/16/2021 7:00:00 AM 20.45 68.81 0.153 7.18 1.25 7.98
8/16/2021 7:15:00 AM 20.45 68.81 0.153 7.19 1.24 8.03
8/16/2021 7:30:00 AM 20.47 68.846 0.153 7.22 1.15 8.13
8/16/2021 7:45:00 AM 20.47 68.846 0.153 7.21 1.21 8.19
8/16/2021 8:00:00 AM 20.5 68.9 0.153 7.25 1.15 8.32
8/16/2021 8:15:00 AM 20.54 68.972 0.153 7.28 1.11 8.47
8/16/2021 8:30:00 AM 20.58 69.044 0.152 7.31 1.2 8.61
8/16/2021 8:45:00 AM 20.63 69.134 0.152 7.35 1.06 8.75
8/16/2021 9:00:00 AM 20.67 69.206 0.152 7.39 1.26 8.83
8/16/2021 9:15:00 AM 20.72 69.296 0.152 7.41 1.22 8.9
8/16/2021 9:30:00 AM 20.76 69.368 0.152 7.45 1.05 8.94
8/16/2021 9:45:00 AM 20.79 69.422 0.151 7.45 1.11 8.96
8/16/2021 10:00:00 AM 20.82 69.476 0.151 7.49 1.04 9
8/16/2021 10:15:00 AM 20.88 69.584 0.151 7.52 1 9.12
8/16/2021 10:30:00 AM 20.97 69.746 0.151 7.59 1.08 9.25
8/16/2021 10:45:00 AM 21.04 69.872 0.151 7.65 1.23 9.35
8/16/2021 11:00:00 AM 21.13 70.034 0.151 7.7 1.36 9.41
8/16/2021 11:15:00 AM 21.19 70.142 0.151 7.76 0.97 9.43
8/16/2021 11:30:00 AM 21.22 70.196 0.151 7.76 1.02 9.39
8/16/2021 11:45:00 AM 21.26 70.268 0.151 7.77 1.01 9.4
8/16/2021 12:00:00 PM 21.37 70.466 0.15 7.85 1.01 9.5
8/16/2021 12:15:00 PM 21.46 70.628 0.15 7.93 1.01 9.55
8/16/2021 12:30:00 PM 21.55 70.79 0.15 7.98 1.04 9.59
8/16/2021 12:45:00 PM 21.61 70.898 0.15 8 0.92 9.57
8/16/2021 1:00:00 PM 21.64 70.952 0.15 8 0.91 9.51
8/16/2021 1:15:00 PM 21.64 70.952 0.15 7.96 0.88 9.41
8/16/2021 1:30:00 PM 21.65 70.97 0.15 7.92 0.93 9.32
8/16/2021 1:45:00 PM 21.65 70.97 0.15 7.85 1.16 9.22
8/16/2021 2:00:00 PM 21.68 71.024 0.15 7.84 0.91 9.22
8/16/2021 2:15:00 PM 21.75 71.15 0.15 7.91 1.27 9.3
8/16/2021 2:30:00 PM 21.8 71.24 0.147 7.93 1.09 9.29
8/16/2021 2:45:00 PM 21.84 71.312 0.15 7.84 1.11 9.05
8/16/2021 3:00:00 PM 21.88 71.384 0.15 7.93 0.86 9.22
8/16/2021 3:15:00 PM 21.92 71.456 0.15 7.84 0.95 9.04
8/16/2021 3:30:00 PM 21.98 71.564 0.15 7.98 0.85 9.28
8/16/2021 3:45:00 PM 22 71.6 0.148 7.95 0.77 9.19
8/16/2021 4:00:00 PM 22.07 71.726 0.15 7.99 0.86 9.26
8/16/2021 4:15:00 PM 22.12 71.816 0.15 8.02 0.75 9.28
8/16/2021 4:30:00 PM 22.21 71.978 0.15 8.09 0.89 9.34
8/16/2021 4:45:00 PM 22.29 72.122 0.15 8.13 0.72 9.36
8/16/2021 5:00:00 PM 22.3 72.14 0.15 8.1 0.94 9.24
8/16/2021 5:15:00 PM 22.32 72.176 0.15 8.04 0.87 9.18
8/16/2021 5:30:00 PM 22.33 72.194 0.15 7.98 0.73 9.06
8/16/2021 5:45:00 PM 22.29 72.122 0.149 7.85 1.11 8.82
8/16/2021 6:00:00 PM 22.24 72.032 0.149 7.7 0.98 8.59
8/16/2021 6:15:00 PM 22.19 71.942 0.149 7.61 0.84 8.41
8/16/2021 6:30:00 PM 22.15 71.87 0.15 7.52 0.8 8.28
8/16/2021 6:45:00 PM 22.1 71.78 0.149 7.47 0.85 8.2
8/16/2021 7:00:00 PM 22.06 71.708 0.148 7.43 0.92 8.13
8/16/2021 7:15:00 PM 22.04 71.672 0.148 7.42 1.49 8.02
8/16/2021 7:30:00 PM 21.97 71.546 0.149 7.36 2.48 7.96
8/16/2021 7:45:00 PM 21.92 71.456 0.149 7.33 1.06 7.9
8/16/2021 8:00:00 PM 21.87 71.366 0.15 7.31 0.88 7.85
8/16/2021 8:15:00 PM 21.83 71.294 0.15 7.29 0.97 7.82
8/16/2021 8:30:00 PM 21.79 71.222 0.15 7.27 0.99 7.78
8/16/2021 8:45:00 PM 21.75 71.15 0.15 7.27 1.12 7.75
8/16/2021 9:00:00 PM 21.7 71.06 0.15 7.24 1.15 7.73
8/16/2021 9:15:00 PM 21.66 70.988 0.15 7.23 1.16 7.71
8/16/2021 9:30:00 PM 21.62 70.916 0.15 7.22 1.16 7.7
8/16/2021 9:45:00 PM 21.57 70.826 0.151 7.21 1.06 7.71
8/16/2021 10:00:00 PM 21.52 70.736 0.151 7.2 0.96 7.71
8/16/2021 10:15:00 PM 21.47 70.646 0.151 7.2 1 7.71
8/16/2021 10:30:00 PM 21.42 70.556 0.151 7.2 1.17 7.71
8/16/2021 10:45:00 PM 21.37 70.466 0.151 7.17 1.04 7.72
8/16/2021 11:00:00 PM 21.32 70.376 0.151 7.19 1.14 7.72
8/16/2021 11:15:00 PM 21.27 70.286 0.151 7.17 1 7.74
8/16/2021 11:30:00 PM 21.22 70.196 0.151 7.17 0.97 7.75
8/16/2021 11:45:00 PM 21.18 70.124 0.151 7.16 1.06 7.76
8/17/2021 12:00:00 AM 21.13 70.034 0.152 7.18 1.08 7.77
8/17/2021 12:15:00 AM 21.08 69.944 0.151 7.15 1.09 7.78
8/17/2021 12:30:00 AM 21.04 69.872 0.151 7.17 19.37 7.78
8/17/2021 12:45:00 AM 21.01 69.818 0.151 7.15 1.03 7.79
8/17/2021 1:00:00 AM 20.97 69.746 0.151 7.16 1.13 7.8
8/17/2021 1:15:00 AM 20.94 69.692 0.152 7.15 1.04 7.8
8/17/2021 1:30:00 AM 20.91 69.638 0.152 7.16 1.03 7.82
8/17/2021 1:45:00 AM 20.88 69.584 0.152 7.17 1.5 7.81
8/17/2021 2:00:00 AM 20.85 69.53 0.152 7.15 2.74 7.81
8/17/2021 2:15:00 AM 20.82 69.476 0.152 7.24 371.37 7.84
8/17/2021 2:30:00 AM 20.8 69.44 0.152 7.19 3.09 7.85
8/17/2021 2:45:00 AM 20.77 69.386 0.152 7.15 14.66 7.85
8/17/2021 3:00:00 AM 20.75 69.35 0.152 7.15 1.26 7.85
8/17/2021 3:15:00 AM 20.73 69.314 0.152 7.14 1.14 7.83
8/17/2021 3:30:00 AM 20.72 69.296 0.153 7.13 1.03 7.87
8/17/2021 3:45:00 AM 20.7 69.26 0.153 7.13 1.02 7.87
8/17/2021 4:00:00 AM 20.69 69.242 0.153 7.13 1.17 7.88
8/17/2021 4:15:00 AM 20.67 69.206 0.153 7.12 1.04 7.88
8/17/2021 4:30:00 AM 20.66 69.188 0.153 7.13 1.86 7.88
8/17/2021 4:45:00 AM 20.65 69.17 0.153 7.11 12.18 7.89
8/17/2021 5:00:00 AM 20.64 69.152 0.153 7.12 1.06 7.9
8/17/2021 5:15:00 AM 20.64 69.152 0.153 7.14 1.09 7.9
8/17/2021 5:30:00 AM 20.63 69.134 0.153 7.12 1.05 7.91
8/17/2021 5:45:00 AM 20.62 69.116 0.153 7.13 1.29 7.91
8/17/2021 6:00:00 AM 20.61 69.098 0.153 7.11 1.24 7.91
8/17/2021 6:15:00 AM 20.6 69.08 0.153 7.13 1.14 7.91
8/17/2021 6:30:00 AM 20.6 69.08 0.153 7.12 1.09 7.91
8/17/2021 6:45:00 AM 20.59 69.062 0.153 7.12 1.1 7.93
8/17/2021 7:00:00 AM 20.59 69.062 0.153 7.12 1.13 7.95
8/17/2021 7:15:00 AM 20.59 69.062 0.153 7.13 1.06 7.99
8/17/2021 7:30:00 AM 20.59 69.062 0.153 7.12 1.01 8.04
8/17/2021 7:45:00 AM 20.61 69.098 0.153 7.15 1.07 8.12
8/17/2021 8:00:00 AM 20.61 69.098 0.153 7.16 1.15 8.15
8/17/2021 8:15:00 AM 20.62 69.116 0.153 7.15 0.98 8.19
8/17/2021 8:30:00 AM 20.63 69.134 0.153 7.16 0.99 8.24
8/17/2021 8:45:00 AM 20.64 69.152 0.153 7.17 1.11 8.3
8/17/2021 9:00:00 AM 20.66 69.188 0.153 7.21 1.11 8.38
8/17/2021 9:15:00 AM 20.67 69.206 0.153 7.2 1.05 8.44
8/17/2021 9:30:00 AM 20.68 69.224 0.153 7.22 1.02 8.46
8/17/2021 9:45:00 AM 20.7 69.26 0.153 7.21 1.07 8.47
8/17/2021 10:00:00 AM 20.73 69.314 0.153 7.25 1.3 8.57
8/17/2021 10:15:00 AM 20.82 69.476 0.152 7.31 0.94 8.84
8/17/2021 10:30:00 AM 20.93 69.674 0.152 7.39 0.99 9.07
8/17/2021 10:45:00 AM 21.06 69.908 0.152 7.47 1.09 9.25
8/17/2021 11:00:00 AM 21.15 70.07 0.152 7.5 1.08 9.34
8/17/2021 11:15:00 AM 21.24 70.232 0.151 7.58 0.95 9.45
8/17/2021 11:30:00 AM 21.28 70.304 0.151 7.61 1.04 9.45
8/17/2021 11:45:00 AM 21.31 70.358 0.151 7.65 0.93 9.43
8/17/2021 12:00:00 PM 21.38 70.484 0.151 7.7 0.94 9.5
8/17/2021 12:15:00 PM 21.44 70.592 0.151 7.73 0.9 9.51
8/17/2021 12:30:00 PM 21.46 70.628 0.151 7.73 1.12 9.43
8/17/2021 12:45:00 PM 21.46 70.628 0.152 7.72 0.89 9.33
8/17/2021 1:00:00 PM 21.48 70.664 0.152 7.72 0.86 9.38
8/17/2021 1:15:00 PM 21.56 70.808 0.151 7.83 0.83 9.47
8/17/2021 1:30:00 PM 21.67 71.006 0.151 7.9 0.85 9.58
8/17/2021 1:45:00 PM 21.76 71.168 0.151 7.97 0.92 9.62
8/17/2021 2:00:00 PM 21.86 71.348 0.151 8.04 0.89 9.68
8/17/2021 2:15:00 PM 21.95 71.51 0.151 8.09 0.83 9.69
8/17/2021 2:30:00 PM 22.01 71.618 0.151 8.14 0.93 9.7
8/17/2021 2:45:00 PM 22.07 71.726 0.151 8.14 0.92 9.65
8/17/2021 3:00:00 PM 22.12 71.816 0.151 8.13 0.8 9.6
8/17/2021 3:15:00 PM 22.21 71.978 0.151 8.19 0.86 9.63
8/17/2021 3:30:00 PM 22.28 72.104 0.151 8.2 0.95 9.63
8/17/2021 3:45:00 PM 22.31 72.158 0.151 8.23 0.87 9.61
8/17/2021 4:00:00 PM 22.37 72.266 0.151 8.25 0.82 9.61
8/17/2021 4:15:00 PM 22.51 72.518 0.151 8.3 0.9 9.65
8/17/2021 4:30:00 PM 22.54 72.57201 0.151 8.3 0.86 9.61
8/17/2021 4:45:00 PM 22.6 72.68 0.151 8.32 0.94 9.6
8/17/2021 5:00:00 PM 22.65 72.77 0.151 8.33 1.1 9.59
8/17/2021 5:15:00 PM 22.67 72.806 0.151 8.31 0.78 9.54
8/17/2021 5:30:00 PM 22.65 72.77 0.152 8.31 0.93 9.47
8/17/2021 5:45:00 PM 22.62 72.716 0.152 8.24 0.79 9.38
8/17/2021 6:00:00 PM 22.57 72.626 0.152 8.17 0.76 9.23
8/17/2021 6:15:00 PM 22.51 72.518 0.152 8.04 0.75 9.05
8/17/2021 6:30:00 PM 22.45 72.41 0.152 7.92 0.75 8.88
8/17/2021 6:45:00 PM 22.39 72.302 0.153 7.77 0.78 8.67
8/17/2021 7:00:00 PM 22.33 72.194 0.153 7.68 0.84 8.54
8/17/2021 7:15:00 PM 22.28 72.104 0.153 7.58 0.89 8.4
8/17/2021 7:30:00 PM 22.23 72.014 0.154 7.5 0.81 8.28
8/17/2021 7:45:00 PM 22.17 71.906 0.154 7.46 0.89 8.15
8/17/2021 8:00:00 PM 22.1 71.78 0.154 7.4 0.95 8.06
8/17/2021 8:15:00 PM 22.04 71.672 0.155 7.37 0.89 7.96
8/17/2021 8:30:00 PM 21.98 71.564 0.155 7.34 1.07 7.91
8/17/2021 8:45:00 PM 21.91 71.438 0.155 7.31 1.14 7.86
8/17/2021 9:00:00 PM 21.85 71.33 0.155 7.28 1.06 7.82
8/17/2021 9:15:00 PM 21.78 71.204 0.156 7.24 1.01 7.8
8/17/2021 9:30:00 PM 21.71 71.078 0.156 7.23 0.98 7.8
8/17/2021 9:45:00 PM 21.63 70.934 0.156 7.22 1.18 7.79
8/17/2021 10:00:00 PM 21.55 70.79 0.156 7.2 1.06 7.78
8/17/2021 10:15:00 PM 21.47 70.646 0.156 7.2 1.11 7.79
8/17/2021 10:30:00 PM 21.39 70.502 0.156 7.19 1.19 7.8
8/17/2021 10:45:00 PM 21.32 70.376 0.157 7.16 1.13 7.81
8/17/2021 11:00:00 PM 21.24 70.232 0.157 7.18 1.05 7.82
8/17/2021 11:15:00 PM 21.17 70.106 0.157 7.17 1.06 7.83
8/17/2021 11:30:00 PM 21.11 69.998 0.157 7.15 1.01 7.84
8/17/2021 11:45:00 PM 21.05 69.89 0.157 7.17 1.12 7.84
8/18/2021 12:00:00 AM 21 69.8 0.157 7.15 0.97 7.85
8/18/2021 12:15:00 AM 20.97 69.746 0.157 7.14 1.04 7.86
8/18/2021 12:30:00 AM 20.94 69.692 0.157 7.15 1.15 7.85
8/18/2021 12:45:00 AM 20.93 69.674 0.157 7.14 1.14 7.86
8/18/2021 1:00:00 AM 20.93 69.674 0.157 7.15 1.07 7.86
8/18/2021 1:15:00 AM 20.93 69.674 0.157 7.15 1.16 7.85
8/18/2021 1:30:00 AM 20.94 69.692 0.157 7.15 1.17 7.84
8/18/2021 1:45:00 AM 20.95 69.71 0.156 7.15 1.09 7.83
8/18/2021 2:00:00 AM 20.97 69.746 0.156 7.13 0.99 7.83
8/18/2021 2:15:00 AM 20.99 69.782 0.156 7.15 1.04 7.83
8/18/2021 2:30:00 AM 21.01 69.818 0.156 7.12 0.99 7.83
8/18/2021 2:45:00 AM 21.03 69.854 0.156 7.14 1 7.81
8/18/2021 3:00:00 AM 21.04 69.872 0.156 7.14 1.09 7.83
8/18/2021 3:15:00 AM 21.06 69.908 0.156 7.13 1.07 7.82
8/18/2021 3:30:00 AM 21.07 69.926 0.156 7.13 1.05 7.81
8/18/2021 3:45:00 AM 21.09 69.962 0.156 7.13 1.03 7.8
8/18/2021 4:00:00 AM 21.09 69.962 0.156 7.12 1.08 7.8
8/18/2021 4:15:00 AM 21.1 69.98 0.156 7.1 1.05 7.81
8/18/2021 4:30:00 AM 21.11 69.998 0.156 7.12 1.03 7.8
8/18/2021 4:45:00 AM 21.11 69.998 0.156 7.11 1.12 7.8
8/18/2021 5:00:00 AM 21.11 69.998 0.155 7.08 1.18 7.8
8/18/2021 5:15:00 AM 21.11 69.998 0.155 7.1 1.22 7.8
8/18/2021 5:30:00 AM 21.11 69.998 0.154 7.1 1.27 7.79
8/18/2021 5:45:00 AM 21.12 70.016 0.153 7.07 1.46 7.8
8/18/2021 6:00:00 AM 21.15 70.07 0.153 7.11 2.25 7.75
8/18/2021 6:15:00 AM 21.14 70.052 0.153 7.1 1.54 7.77
8/18/2021 6:30:00 AM 21.13 70.034 0.153 7.06 1.36 7.77
8/18/2021 6:45:00 AM 21.13 70.034 0.154 7.08 1.22 7.79
8/18/2021 7:00:00 AM 21.13 70.034 0.154 7.09 1.08 7.8
8/18/2021 7:15:00 AM 21.13 70.034 0.154 7.1 0.96 7.83
8/18/2021 7:30:00 AM 21.14 70.052 0.153 7.1 1.1 7.85
8/18/2021 7:45:00 AM 21.15 70.07 0.152 7.11 1.21 7.89
8/18/2021 8:00:00 AM 21.22 70.196 0.149 7.15 4.22 7.95
8/18/2021 8:15:00 AM 21.23 70.214 0.149 7.19 2.54 8.04
8/18/2021 8:30:00 AM 21.23 70.214 0.151 7.2 1.75 8.17
8/18/2021 8:45:00 AM 21.24 70.232 0.151 7.21 1.44 8.27
8/18/2021 9:00:00 AM 21.26 70.268 0.152 7.2 1.15 8.37
8/18/2021 9:15:00 AM 21.29 70.32201 0.152 7.25 1.17 8.49
8/18/2021 9:30:00 AM 21.32 70.376 0.152 7.28 1.07 8.58
8/18/2021 9:45:00 AM 21.34 70.412 0.152 7.29 1.07 8.55
8/18/2021 10:00:00 AM 21.38 70.484 0.152 7.32 1.01 8.65
8/18/2021 10:15:00 AM 21.41 70.538 0.153 7.32 1.04 8.73
8/18/2021 10:30:00 AM 21.44 70.592 0.153 7.37 1.21 8.79
8/18/2021 10:45:00 AM 21.47 70.646 0.153 7.36 1.05 8.82
8/18/2021 11:00:00 AM 21.48 70.664 0.153 7.39 0.96 8.8
8/18/2021 11:15:00 AM 21.49 70.682 0.154 7.38 0.97 8.81
8/18/2021 11:30:00 AM 21.5 70.7 0.154 7.41 0.94 8.79
8/18/2021 11:45:00 AM 21.51 70.718 0.154 7.39 0.98 8.78
8/18/2021 12:00:00 PM 21.51 70.718 0.154 7.41 0.88 8.75
8/18/2021 12:15:00 PM 21.54 70.772 0.153 7.43 1.32 8.81
8/18/2021 12:30:00 PM 21.55 70.79 0.153 7.43 1.61 8.82
8/18/2021 12:45:00 PM 21.61 70.898 0.152 7.51 2.94 8.78
8/18/2021 1:00:00 PM 21.63 70.934 0.153 7.48 2.47 8.78
8/18/2021 1:15:00 PM 21.62 70.916 0.153 7.49 1.33 8.86
8/18/2021 1:30:00 PM 21.65 70.97 0.154 7.53 1.38 8.96
8/18/2021 1:45:00 PM 21.65 70.97 0.154 7.5 1.09 8.91
8/18/2021 2:00:00 PM -99999.99 -179968 -99999.99 -99999.99 -99999.99 -99999.99
8/18/2021 2:30:00 PM 21.66 70.988 0.152 7.45 1.57 8.6
8/18/2021 2:45:00 PM 22.07 71.726 0.135 7.65 17.97 8.31
8/18/2021 3:00:00 PM 21.82 71.276 0.143 7.47 5.14 8.26
8/18/2021 3:15:00 PM 21.68 71.024 0.147 7.34 2.41 8.22
8/18/2021 3:30:00 PM 21.62 70.916 0.149 7.3 2.07 8.18
8/18/2021 3:45:00 PM 21.62 70.916 0.147 7.3 2.27 8.18
8/18/2021 4:15:00 PM 22.06 71.708 0.121 7.51 13.27 8.17

These are provisional data and have not been subject to a quality assurance process, but rather are the raw data reported by the instrument.
H: value is above sensor operating range
L: value is below sensor operating range
Offline: station is not reporting data
NC: parameter is not collected at site

Data Availability & Limitations

Uncertainty and potential for error can be associated with environmental monitoring data. Provisional data have not been subject to a quality assurance process, but rather are the raw data reported by the instrument. Data users are cautioned to consider carefully the provisional nature of the information before using it for decisions that concern personal or public safety or the conduct of business that involves substantial monetary or operational consequences.

Approved data are currently available by request by emailing: srbc@srbc.net. Approved data have been subject to a quality assurance process to correct for equipment or fouling drift. Data recorded during equipment malfunctions have been removed.

View Historical Stations that have been discontinued.